createdAt,value
2023-03-25T00:01:18.071Z,1.40
2023-03-25T00:03:51.071Z,1.10
2023-03-25T00:06:18.479Z,1.20
2023-03-25T00:08:45.763Z,1.13
2023-03-25T00:11:12.760Z,1.20
2023-03-25T00:13:40.925Z,1.13
2023-03-25T00:16:10.167Z,1.20
2023-03-25T00:18:38.772Z,1.20
2023-03-25T00:21:10.644Z,1.13
2023-03-25T00:23:39.660Z,1.87
2023-03-25T00:26:07.260Z,1.20
2023-03-25T00:28:36.535Z,1.43
2023-03-25T00:31:05.317Z,1.23
2023-03-25T00:33:33.527Z,1.33
2023-03-25T00:36:02.105Z,1.33
2023-03-25T00:38:35.608Z,1.40
2023-03-25T00:41:13.745Z,1.50
2023-03-25T00:43:41.210Z,1.50
2023-03-25T00:46:08.142Z,1.63
2023-03-25T00:48:35.741Z,1.30
2023-03-25T00:51:08.584Z,1.40
2023-03-25T00:53:37.218Z,1.30
2023-03-25T00:56:04.678Z,1.33
2023-03-25T00:58:31.948Z,1.20
2023-03-25T01:00:59.389Z,1.20
2023-03-25T01:03:29.321Z,1.50
2023-03-25T01:05:57.858Z,1.20
2023-03-25T01:08:29.938Z,1.17
2023-03-25T01:10:57.144Z,0.90
2023-03-25T01:13:24.650Z,1.53
2023-03-25T01:15:51.698Z,1.40
2023-03-25T01:18:20.934Z,1.77
2023-03-25T01:20:47.741Z,1.07
2023-03-25T01:23:14.705Z,1.30
2023-03-25T01:25:44.035Z,1.50
2023-03-25T01:28:11.284Z,1.30
2023-03-25T01:30:38.158Z,1.00
2023-03-25T01:33:05.307Z,1.40
2023-03-25T01:35:32.235Z,1.30
2023-03-25T01:37:59.444Z,1.30
2023-03-25T01:40:26.320Z,1.60
2023-03-25T01:42:54.480Z,1.30
2023-03-25T01:45:25.200Z,1.50
2023-03-25T01:48:06.774Z,1.23
2023-03-25T01:50:35.909Z,1.67
2023-03-25T01:53:04.840Z,1.20
2023-03-25T01:55:34.682Z,1.47
2023-03-25T01:58:07.456Z,1.30
2023-03-25T02:00:34.371Z,1.20
2023-03-25T02:03:03.322Z,1.30
2023-03-25T02:05:37.330Z,1.30
2023-03-25T02:08:06.322Z,1.60
2023-03-25T02:10:33.808Z,1.30
2023-03-25T02:13:03.719Z,1.00
2023-03-25T02:15:44.521Z,1.20
2023-03-25T02:18:32.494Z,1.33
2023-03-25T02:21:46.186Z,1.40
2023-03-25T02:24:43.590Z,1.20
2023-03-25T02:27:28.340Z,1.20
2023-03-25T02:30:27.850Z,1.20
2023-03-25T02:33:28.500Z,1.30
2023-03-25T02:36:30.319Z,1.20
2023-03-25T02:39:01.751Z,1.10
2023-03-25T02:41:34.747Z,1.43
2023-03-25T02:44:06.153Z,1.00
2023-03-25T02:46:36.162Z,1.37
2023-03-25T02:49:06.954Z,1.67
2023-03-25T02:51:37.444Z,1.20
2023-03-25T02:54:10.034Z,1.23
2023-03-25T02:56:37.904Z,0.90
2023-03-25T02:59:05.729Z,1.03
2023-03-25T03:01:34.828Z,1.30
2023-03-25T03:04:02.154Z,1.27
2023-03-25T03:06:29.294Z,1.20
2023-03-25T03:09:25.830Z,1.40
2023-03-25T03:12:03.133Z,1.23
2023-03-25T03:14:45.138Z,1.20
2023-03-25T03:17:20.110Z,1.10
2023-03-25T03:19:51.772Z,1.00
2023-03-25T03:22:35.179Z,1.10
2023-03-25T03:25:14.604Z,1.30
2023-03-25T03:27:47.553Z,1.30
2023-03-25T03:30:19.970Z,1.40
2023-03-25T03:32:53.453Z,1.70
2023-03-25T03:35:24.741Z,1.50
2023-03-25T03:37:56.388Z,1.40
2023-03-25T03:40:28.658Z,1.40
2023-03-25T03:42:58.104Z,1.40
2023-03-25T03:45:29.536Z,1.30
2023-03-25T03:47:58.335Z,1.60
2023-03-25T03:50:31.876Z,1.40
2023-03-25T03:53:04.819Z,1.40
2023-03-25T03:55:38.448Z,1.60
2023-03-25T03:58:10.131Z,1.30
2023-03-25T04:00:43.026Z,1.60
2023-03-25T04:03:15.027Z,1.37
2023-03-25T04:05:47.602Z,1.70
2023-03-25T04:08:23.879Z,1.50
2023-03-25T04:10:59.460Z,1.67
2023-03-25T04:13:31.888Z,1.40
2023-03-25T04:16:00.555Z,1.50
2023-03-25T04:18:28.474Z,1.40
2023-03-25T04:20:56.142Z,1.63
2023-03-25T04:23:23.031Z,1.77
2023-03-25T04:25:53.774Z,1.30
2023-03-25T04:28:23.889Z,1.60
2023-03-25T04:30:56.122Z,1.90
2023-03-25T04:33:23.465Z,1.83
2023-03-25T04:35:51.703Z,1.60
2023-03-25T04:38:18.912Z,1.60
2023-03-25T04:40:47.062Z,1.60
2023-03-25T04:43:13.931Z,1.47
2023-03-25T04:45:49.974Z,1.70
2023-03-25T04:48:24.449Z,1.63
2023-03-25T04:50:52.096Z,1.40
2023-03-25T04:53:19.151Z,1.70
2023-03-25T04:55:50.476Z,1.50
2023-03-25T04:58:17.926Z,1.30
2023-03-25T05:00:50.405Z,1.43
2023-03-25T05:03:17.907Z,1.80
2023-03-25T05:05:44.960Z,1.70
2023-03-25T05:08:11.693Z,1.80
2023-03-25T05:10:39.349Z,1.60
2023-03-25T05:13:07.898Z,1.93
2023-03-25T05:15:39.826Z,2.00
2023-03-25T05:18:10.082Z,2.30
2023-03-25T05:20:38.345Z,1.97
2023-03-25T05:23:05.435Z,2.33
2023-03-25T05:25:34.695Z,2.37
2023-03-25T05:28:06.022Z,2.77
2023-03-25T05:30:34.220Z,2.40
2023-03-25T05:33:01.497Z,1.53
2023-03-25T05:35:29.798Z,1.83
2023-03-25T05:37:57.054Z,2.03
2023-03-25T05:40:23.965Z,2.10
2023-03-25T05:42:54.718Z,1.90
2023-03-25T05:45:22.416Z,2.20
2023-03-25T05:47:49.438Z,1.80
2023-03-25T05:50:17.162Z,2.20
2023-03-25T05:52:45.560Z,2.10
2023-03-25T05:55:17.422Z,2.00
2023-03-25T05:57:45.207Z,2.07
2023-03-25T06:00:13.821Z,2.33
2023-03-25T06:02:43.494Z,2.37
2023-03-25T06:05:13.883Z,2.30
2023-03-25T06:07:42.947Z,1.90
2023-03-25T06:10:11.982Z,2.23
2023-03-25T06:12:39.681Z,2.47
2023-03-25T06:15:08.340Z,2.00
2023-03-25T06:17:38.882Z,2.43
2023-03-25T06:20:10.774Z,1.90
2023-03-25T06:22:39.578Z,2.00
2023-03-25T06:25:07.424Z,2.07
2023-03-25T06:27:40.733Z,2.20
2023-03-25T06:30:10.314Z,1.90
2023-03-25T06:32:38.463Z,1.80
2023-03-25T06:35:07.579Z,2.07
2023-03-25T06:37:35.223Z,2.07
2023-03-25T06:40:02.670Z,2.07
2023-03-25T06:42:29.929Z,2.57
2023-03-25T06:44:58.267Z,1.50
2023-03-25T06:47:25.647Z,1.80
2023-03-25T06:49:52.563Z,1.87
2023-03-25T06:52:19.764Z,1.93
2023-03-25T06:54:47.084Z,1.70
2023-03-25T06:57:13.966Z,1.80
2023-03-25T06:59:41.070Z,2.03
2023-03-25T07:02:12.662Z,1.60
2023-03-25T07:04:39.877Z,1.87
2023-03-25T07:07:08.100Z,1.90
2023-03-25T07:09:34.891Z,1.80
2023-03-25T07:12:01.851Z,1.93
2023-03-25T07:14:28.616Z,1.60
2023-03-25T07:16:56.567Z,1.63
2023-03-25T07:19:24.897Z,2.20
2023-03-25T07:21:51.967Z,1.47
2023-03-25T07:24:18.709Z,2.00
2023-03-25T07:26:45.813Z,1.67
2023-03-25T07:29:12.666Z,1.80
2023-03-25T07:31:41.624Z,1.50
2023-03-25T07:34:08.703Z,1.40
2023-03-25T07:36:37.174Z,1.73
2023-03-25T07:39:04.097Z,1.70
2023-03-25T07:41:31.457Z,1.47
2023-03-25T07:43:58.209Z,1.50
2023-03-25T07:46:25.637Z,1.40
2023-03-25T07:48:52.615Z,1.60
2023-03-25T07:51:19.469Z,1.30
2023-03-25T07:53:47.877Z,1.40
2023-03-25T07:56:15.954Z,1.20
2023-03-25T07:58:44.407Z,1.23
2023-03-25T08:01:11.678Z,1.27
2023-03-25T08:03:41.210Z,1.63
2023-03-25T08:06:08.975Z,1.57
2023-03-25T08:08:36.024Z,1.70
2023-03-25T08:11:04.597Z,1.53
2023-03-25T08:13:31.411Z,1.63
2023-03-25T08:15:58.891Z,1.77
2023-03-25T08:18:25.904Z,1.80
2023-03-25T08:20:53.824Z,1.83
2023-03-25T08:23:22.389Z,2.10
2023-03-25T08:25:51.645Z,1.90
2023-03-25T08:28:23.304Z,1.50
2023-03-25T08:30:55.499Z,1.73
2023-03-25T08:33:27.178Z,1.47
2023-03-25T08:35:57.786Z,1.90
2023-03-25T08:38:25.440Z,2.10
2023-03-25T08:40:52.855Z,2.03
2023-03-25T08:43:22.111Z,1.83
2023-03-25T08:45:49.380Z,1.70
2023-03-25T08:48:16.352Z,1.80
2023-03-25T08:50:43.686Z,1.90
2023-03-25T08:53:10.665Z,1.70
2023-03-25T08:55:37.934Z,1.70
2023-03-25T08:58:06.134Z,1.83
2023-03-25T09:00:35.494Z,1.63
2023-03-25T09:03:02.751Z,1.20
2023-03-25T09:05:29.903Z,2.10
2023-03-25T09:07:56.996Z,1.60
2023-03-25T09:10:23.861Z,1.87
2023-03-25T09:12:52.066Z,1.57
2023-03-25T09:15:18.859Z,1.37
2023-03-25T09:17:47.556Z,1.77
2023-03-25T09:20:14.803Z,1.70
2023-03-25T09:22:42.150Z,1.40
2023-03-25T09:25:09.385Z,1.60
2023-03-25T09:27:36.364Z,1.20
2023-03-25T09:30:04.585Z,1.33
2023-03-25T09:32:31.939Z,1.40
2023-03-25T09:35:00.341Z,1.50
2023-03-25T09:37:27.689Z,1.60
2023-03-25T09:39:54.579Z,1.50
2023-03-25T09:42:41.031Z,1.40
2023-03-25T09:45:29.145Z,1.60
2023-03-25T09:48:00.777Z,1.77
2023-03-25T09:50:30.425Z,1.30
2023-03-25T09:53:01.946Z,1.30
2023-03-25T09:55:31.457Z,1.10
2023-03-25T09:58:02.654Z,1.17
2023-03-25T10:00:31.018Z,1.50
2023-03-25T10:03:08.047Z,1.10
2023-03-25T10:06:05.542Z,1.40
2023-03-25T10:08:44.730Z,1.40
2023-03-25T10:11:19.097Z,1.20
2023-03-25T10:13:54.531Z,1.30
2023-03-25T10:16:30.961Z,1.20
2023-03-25T10:19:15.375Z,1.23
2023-03-25T10:21:53.666Z,0.90
2023-03-25T10:24:23.717Z,1.20
2023-03-25T10:26:56.603Z,1.30
2023-03-25T10:29:28.568Z,1.40
2023-03-25T10:32:01.641Z,1.20
2023-03-25T10:34:36.226Z,1.10
2023-03-25T10:37:10.571Z,1.00
2023-03-25T10:39:39.964Z,1.30
2023-03-25T10:42:18.535Z,1.43
2023-03-25T10:44:46.538Z,1.40
2023-03-25T10:47:18.353Z,1.37
2023-03-25T10:49:48.068Z,1.40
2023-03-25T10:52:17.627Z,1.33
2023-03-25T10:54:48.990Z,1.63
2023-03-25T10:57:20.681Z,1.50
2023-03-25T10:59:57.906Z,1.40
2023-03-25T11:02:28.787Z,1.50
2023-03-25T11:04:59.880Z,1.50
2023-03-25T11:07:32.546Z,1.73
2023-03-25T11:12:46.567Z,1.60
2023-03-25T11:15:15.586Z,2.00
2023-03-25T11:17:44.342Z,1.53
2023-03-25T11:20:19.451Z,2.17
2023-03-25T11:22:51.572Z,1.90
2023-03-25T11:25:23.899Z,2.00
2023-03-25T11:27:55.778Z,2.03
2023-03-25T11:30:24.289Z,1.60
2023-03-25T11:32:59.523Z,1.40
2023-03-25T11:35:28.874Z,2.27
2023-03-25T11:37:59.734Z,2.00
2023-03-25T11:40:28.312Z,1.53
2023-03-25T11:42:58.120Z,1.80
2023-03-25T11:45:32.539Z,1.60
2023-03-25T11:48:09.205Z,2.03
2023-03-25T11:50:36.651Z,1.70
2023-03-25T11:53:06.357Z,1.80
2023-03-25T11:55:43.802Z,1.80
2023-03-25T11:58:15.761Z,1.67
2023-03-25T12:00:47.528Z,2.13
2023-03-25T12:03:20.821Z,1.83
2023-03-25T12:05:58.515Z,1.50
2023-03-25T12:08:30.562Z,2.00
2023-03-25T12:11:03.232Z,1.47
2023-03-25T12:13:45.690Z,1.83
2023-03-25T12:16:26.687Z,2.10
2023-03-25T12:19:05.518Z,1.57
2023-03-25T12:21:45.430Z,2.30
2023-03-25T12:24:28.446Z,2.27
2023-03-25T12:27:11.139Z,3.03
2023-03-25T12:29:46.881Z,2.33
2023-03-25T12:32:26.729Z,1.90
2023-03-25T12:35:04.805Z,2.10
2023-03-25T12:37:39.511Z,2.40
2023-03-25T12:40:30.473Z,2.23
2023-03-25T12:43:05.497Z,2.00
2023-03-25T12:45:54.585Z,2.13
2023-03-25T12:48:37.934Z,1.97
2023-03-25T12:51:14.412Z,1.60
2023-03-25T12:53:57.114Z,1.73
2023-03-25T12:56:36.849Z,1.70
2023-03-25T12:59:45.657Z,1.63
2023-03-25T13:02:25.883Z,1.73
2023-03-25T13:05:05.733Z,1.90
2023-03-25T13:07:38.040Z,1.80
2023-03-25T13:10:14.739Z,2.07
2023-03-25T13:12:48.022Z,2.30
2023-03-25T13:15:26.312Z,2.00
2023-03-25T13:17:58.660Z,2.00
2023-03-25T13:20:28.033Z,2.13
2023-03-25T13:23:01.676Z,2.83
2023-03-25T13:25:34.680Z,2.80
2023-03-25T13:28:06.504Z,3.23
2023-03-25T13:30:37.572Z,3.10
2023-03-25T13:33:10.580Z,2.30
2023-03-25T13:35:44.771Z,2.50
2023-03-25T13:38:16.272Z,2.87
2023-03-25T13:40:48.199Z,2.80
2023-03-25T13:43:26.033Z,2.10
2023-03-25T13:46:07.698Z,2.20
2023-03-25T13:48:41.333Z,2.10
2023-03-25T13:51:10.003Z,2.50
2023-03-25T13:56:41.197Z,2.00
2023-03-25T13:59:37.670Z,1.77
2023-03-25T14:02:29.452Z,1.90
2023-03-25T14:05:30.788Z,1.80
2023-03-25T14:08:31.684Z,1.70
2023-03-25T14:11:14.951Z,1.83
2023-03-25T14:13:45.991Z,1.60
2023-03-25T14:16:17.694Z,1.50
2023-03-25T14:18:48.568Z,1.40
2023-03-25T14:21:32.226Z,1.70
2023-03-25T14:24:12.138Z,1.60
2023-03-25T14:26:44.235Z,1.50
2023-03-25T14:29:31.773Z,1.60
2023-03-25T14:32:22.711Z,1.50
2023-03-25T14:34:49.939Z,1.33
2023-03-25T14:37:29.996Z,1.73
2023-03-25T14:40:00.361Z,1.73
2023-03-25T14:42:30.162Z,2.20
2023-03-25T14:45:38.798Z,1.70
2023-03-25T14:48:25.920Z,1.30
2023-03-25T14:51:15.381Z,1.23
2023-03-25T14:53:52.165Z,1.90
2023-03-25T14:56:23.439Z,1.63
2023-03-25T14:58:57.506Z,1.97
2023-03-25T15:01:31.080Z,1.87
2023-03-25T15:04:14.342Z,1.77
2023-03-25T15:06:42.326Z,1.90
2023-03-25T15:09:12.771Z,1.80
2023-03-25T15:11:42.917Z,1.57
2023-03-25T15:14:13.927Z,2.07
2023-03-25T15:17:00.461Z,1.60
2023-03-25T15:19:28.789Z,1.60
2023-03-25T15:22:11.120Z,1.50
2023-03-25T15:24:39.399Z,1.73
2023-03-25T15:27:13.164Z,1.50
2023-03-25T15:29:53.095Z,2.07
2023-03-25T15:32:48.266Z,1.77
2023-03-25T15:35:34.541Z,1.73
2023-03-25T15:38:24.921Z,2.10
2023-03-25T15:41:03.970Z,1.53
2023-03-25T15:44:00.980Z,2.50
2023-03-25T15:46:54.669Z,2.30
2023-03-25T15:49:58.233Z,2.23
2023-03-25T15:52:43.752Z,2.17
2023-03-25T15:55:16.624Z,2.47
2023-03-25T15:57:48.520Z,2.43
2023-03-25T16:00:22.655Z,2.77
2023-03-25T16:02:54.624Z,2.13
2023-03-25T16:05:23.612Z,2.80
2023-03-25T16:07:52.515Z,2.77
2023-03-25T16:10:26.516Z,2.03
2023-03-25T16:12:53.727Z,2.70
2023-03-25T16:15:26.619Z,2.27
2023-03-25T16:17:54.709Z,2.90
2023-03-25T16:20:25.760Z,2.97
2023-03-25T16:22:56.495Z,2.40
2023-03-25T16:25:27.011Z,2.43
2023-03-25T16:27:56.721Z,2.70
2023-03-25T16:30:26.035Z,2.77
2023-03-25T16:32:53.587Z,2.20
2023-03-25T16:35:23.272Z,1.50
2023-03-25T16:37:52.133Z,1.30
2023-03-25T16:40:26.975Z,1.70
2023-03-25T16:42:54.575Z,1.87
2023-03-25T16:45:23.149Z,1.83
2023-03-25T16:47:50.068Z,1.47
2023-03-25T16:50:20.036Z,1.80
2023-03-25T16:52:47.560Z,1.70
2023-03-25T16:55:29.475Z,1.50
2023-03-25T16:57:58.404Z,1.67
2023-03-25T17:00:25.501Z,1.77
2023-03-25T17:02:54.015Z,2.10
2023-03-25T17:05:23.964Z,1.70
2023-03-25T17:07:57.735Z,1.90
2023-03-25T17:10:26.442Z,1.80
2023-03-25T17:12:58.420Z,2.17
2023-03-25T17:15:27.077Z,2.33
2023-03-25T17:18:01.123Z,2.50
2023-03-25T17:20:34.644Z,2.63
2023-03-25T17:23:04.684Z,2.27
2023-03-25T17:25:35.508Z,2.53
2023-03-25T17:28:24.901Z,2.67
2023-03-25T17:30:52.043Z,2.20
2023-03-25T17:33:30.091Z,2.23
2023-03-25T17:35:57.381Z,2.20
2023-03-25T17:38:27.714Z,1.97
2023-03-25T17:41:01.858Z,2.20
2023-03-25T17:43:32.317Z,2.47
2023-03-25T17:46:01.042Z,2.80
2023-03-25T17:48:28.452Z,2.50
2023-03-25T17:50:57.565Z,2.90
2023-03-25T17:53:25.096Z,2.40
2023-03-25T17:55:53.291Z,2.70
2023-03-25T17:58:21.740Z,2.70
2023-03-25T18:00:51.742Z,2.23
2023-03-25T18:03:22.742Z,2.30
2023-03-25T18:05:53.901Z,1.87
2023-03-25T18:08:24.669Z,1.87
2023-03-25T18:10:53.717Z,2.30
2023-03-25T18:13:24.926Z,2.03
2023-03-25T18:15:54.327Z,2.10
2023-03-25T18:18:24.256Z,2.20
2023-03-25T18:20:52.661Z,2.20
2023-03-25T18:23:20.371Z,2.13
2023-03-25T18:25:48.177Z,2.27
2023-03-25T18:28:15.600Z,2.43
2023-03-25T18:30:45.689Z,1.60
2023-03-25T18:33:15.507Z,2.03
2023-03-25T18:35:43.350Z,2.20
2023-03-25T18:38:15.719Z,2.00
2023-03-25T18:40:42.658Z,2.40
2023-03-25T18:43:09.476Z,2.33
2023-03-25T18:45:37.771Z,1.90
2023-03-25T18:48:04.912Z,2.00
2023-03-25T18:50:35.264Z,1.90
2023-03-25T18:53:02.595Z,2.33
2023-03-25T18:55:31.377Z,2.37
2023-03-25T18:57:58.300Z,2.00
2023-03-25T19:00:29.223Z,2.27
2023-03-25T19:02:56.915Z,1.97
2023-03-25T19:05:26.173Z,2.67
2023-03-25T19:07:54.381Z,2.03
2023-03-25T19:10:23.606Z,2.37
2023-03-25T19:12:51.682Z,2.30
2023-03-25T19:15:20.349Z,2.80
2023-03-25T19:17:49.046Z,2.50
2023-03-25T19:20:18.125Z,2.60
2023-03-25T19:22:45.590Z,2.57
2023-03-25T19:25:15.281Z,3.20
2023-03-25T19:27:43.076Z,3.00
2023-03-25T19:30:13.207Z,2.63
2023-03-25T19:32:40.432Z,2.30
2023-03-25T19:35:07.931Z,3.10
2023-03-25T19:37:35.417Z,2.73
2023-03-25T19:40:08.254Z,2.40
2023-03-25T19:42:37.099Z,1.97
2023-03-25T19:45:05.066Z,2.17
2023-03-25T19:47:32.420Z,2.20
2023-03-25T19:49:59.478Z,2.57
2023-03-25T19:52:26.648Z,1.90
2023-03-25T19:54:53.516Z,2.60
2023-03-25T19:57:21.356Z,2.53
2023-03-25T19:59:49.506Z,2.10
2023-03-25T20:02:17.282Z,2.13
2023-03-25T20:04:44.512Z,2.20
2023-03-25T20:07:11.669Z,2.20
2023-03-25T20:09:39.761Z,2.23
2023-03-25T20:12:08.262Z,1.80
2023-03-25T20:14:35.183Z,1.93
2023-03-25T20:17:03.461Z,1.60
2023-03-25T20:19:30.538Z,1.70
2023-03-25T20:21:57.362Z,1.57
2023-03-25T20:24:25.615Z,1.43
2023-03-25T20:26:52.734Z,1.40
2023-03-25T20:29:19.919Z,1.60
2023-03-25T20:31:47.182Z,1.50
2023-03-25T20:34:15.937Z,1.30
2023-03-25T20:36:42.834Z,1.50
2023-03-25T20:39:11.247Z,2.33
2023-03-25T20:41:38.110Z,1.90
2023-03-25T20:44:05.206Z,1.60
2023-03-25T20:46:32.178Z,2.03
2023-03-25T20:48:59.205Z,1.80
2023-03-25T20:51:27.450Z,2.03
2023-03-25T20:53:54.701Z,1.50
2023-03-25T20:56:21.562Z,2.00
2023-03-25T20:58:48.562Z,1.90
2023-03-25T21:01:15.544Z,2.80
2023-03-25T21:03:42.832Z,2.63
2023-03-25T21:06:22.861Z,1.90
2023-03-25T21:08:52.411Z,1.80
2023-03-25T21:11:19.269Z,1.60
2023-03-25T21:13:46.378Z,1.70
2023-03-25T21:16:14.095Z,1.80
2023-03-25T21:18:42.678Z,1.70
2023-03-25T21:21:10.132Z,2.30
2023-03-25T21:23:37.015Z,1.87
2023-03-25T21:26:09.437Z,1.47
2023-03-25T21:28:38.430Z,2.03
2023-03-25T21:31:07.639Z,1.70
2023-03-25T21:33:38.914Z,2.07
2023-03-25T21:36:08.338Z,2.33
2023-03-25T21:38:36.547Z,2.00
2023-03-25T21:41:07.249Z,2.70
2023-03-25T21:43:36.578Z,1.93
2023-03-25T21:46:06.148Z,2.07
2023-03-25T21:48:34.421Z,2.07
2023-03-25T21:51:01.676Z,2.00
2023-03-25T21:53:32.917Z,2.23
2023-03-25T21:56:04.234Z,2.00
2023-03-25T21:58:34.519Z,1.67
2023-03-25T22:01:02.643Z,1.63
2023-03-25T22:03:30.363Z,1.70
2023-03-25T22:06:02.078Z,1.73
2023-03-25T22:08:29.438Z,1.87
2023-03-25T22:11:02.041Z,1.97
2023-03-25T22:13:29.185Z,2.47
2023-03-25T22:15:57.674Z,2.13
2023-03-25T22:18:25.321Z,1.93
2023-03-25T22:20:52.700Z,1.87
2023-03-25T22:23:21.690Z,1.73
2023-03-25T22:25:48.575Z,1.70
2023-03-25T22:28:15.775Z,1.80
2023-03-25T22:30:42.982Z,2.03
2023-03-25T22:33:12.137Z,1.93
2023-03-25T22:35:39.056Z,1.70
2023-03-25T22:38:06.435Z,1.80
2023-03-25T22:40:34.590Z,1.87
2023-03-25T22:43:01.443Z,1.70
2023-03-25T22:45:28.441Z,1.97
2023-03-25T22:47:55.491Z,1.97
2023-03-25T22:50:23.713Z,1.93
2023-03-25T22:52:50.548Z,2.10
2023-03-25T22:55:17.446Z,2.57
2023-03-25T22:57:44.584Z,2.30
2023-03-25T23:00:14.224Z,2.40
2023-03-25T23:02:41.874Z,2.43
2023-03-25T23:05:08.920Z,3.07
2023-03-25T23:07:37.458Z,2.53
2023-03-25T23:10:05.991Z,2.30
2023-03-25T23:12:33.199Z,2.60
2023-03-25T23:14:59.997Z,2.60
2023-03-25T23:17:27.439Z,3.00
2023-03-25T23:19:54.600Z,2.30
2023-03-25T23:22:22.502Z,2.33
2023-03-25T23:24:50.873Z,2.80
2023-03-25T23:27:18.302Z,2.87
2023-03-25T23:29:45.194Z,3.40
2023-03-25T23:32:12.424Z,2.70
2023-03-25T23:34:40.098Z,2.70
2023-03-25T23:37:07.616Z,2.80
2023-03-25T23:39:35.302Z,3.00
2023-03-25T23:42:03.638Z,3.10
2023-03-25T23:44:31.500Z,2.83
2023-03-25T23:46:58.625Z,2.20
2023-03-25T23:49:25.519Z,3.23
2023-03-25T23:51:52.970Z,3.50
2023-03-25T23:54:20.217Z,2.90
2023-03-25T23:56:47.155Z,2.73
2023-03-25T23:59:15.726Z,3.20
